WC StCyr

Date de la prise de vue : 14/05/2021 10:04:18
N'ayant pas de Météo à StCyr, voilà le METAR et le TAF de Villacoublay :
2021/05/14 08:00 LFPV 140800Z AUTO 23006KT 200V260 4400 DZ BR OVC005/// ///TCU 09/08 Q1008
2021/05/14 09:46 TAF LFPV 140800Z 1409/1509 23006KT 9000 BKN020 TX14/1417Z TN08/1504Z TEMPO 1409/1418 4000 -SHRA BKN008 BKN020TCU PROB30 TEMPO 1413/1417 TSRA SCT025CB TEMPO 1504/1509 4000 -RA BKN005